Stations météo

réclame
Mon MeteoGroup
Lauwersoog aws, Pays-Bas (6277): Température de l'air & dewpoint: 18.01.2018 10:00:00 - 24.01.2018 10:00:00 (CET)Lauwersoog aws, Pays-Bas (6277): Température de l'air 5cm: 18.01.2018 10:00:00 - 24.01.2018 10:00:00 (CET)Lauwersoog aws, Pays-Bas (6277): Vitesse du vent & gusts: 18.01.2018 10:00:00 - 24.01.2018 10:00:00 (CET)Lauwersoog aws, Pays-Bas (6277): Direction du vent: 18.01.2018 10:00:00 - 24.01.2018 10:00:00 (CET)Lauwersoog aws, Pays-Bas (6277): Quantités de précipitations: 18.01.2018 10:00:00 - 24.01.2018 10:00:00 (CET)
Date & Time tt [°C] td [°C] tt 5cm [°C] ff [km/h] ff [knt] fx [km/h] fx [knt] dd rr [mm]
24.01.2018 10:00:00 10,8 9,2 10,1 40 21 61 33 SSW 0,0
24.01.2018 09:00:00 10,3 9,2 9,5 36 19 58 31 SSW 0,0
24.01.2018 08:00:00 9,7 9,0 9,0 36 19 54 29 SSW 0,0
24.01.2018 07:00:00 9,1 8,2 8,3 36 19 50 27 SSW 0,0
24.01.2018 06:00:00 8,5 7,6 7,8 32 18 50 27 SSW 0,0
24.01.2018 05:00:00 8,5 7,7 8,0 29 16 40 21 SSW 0,0
24.01.2018 04:00:00 9,1 8,3 8,1 29 16 54 29 SW 0,0
24.01.2018 03:00:00 9,0 8,3 8,4 32 18 50 27 SW 0,0
24.01.2018 02:00:00 9,3 8,6 8,7 32 18 50 27 SW 0,0
24.01.2018 01:00:00 9,7 9,1 9,1 36 19 54 29 SW 0,0
24.01.2018 00:00:00 9,6 9,2 8,8 36 19 58 31 SW 0,3
23.01.2018 23:00:00 9,2 8,7 8,2 32 18 54 29 SW 0,0
23.01.2018 22:00:00 8,5 8,1 8,0 36 19 54 29 SSW 0,3
23.01.2018 21:00:00 8,2 7,8 7,6 40 21 58 31 SSW 0,0
23.01.2018 20:00:00 8,0 7,6 7,4 43 23 61 33 SSW 0,1
23.01.2018 19:00:00 7,4 7,1 6,9 32 18 50 27 SSW 0,1
23.01.2018 18:00:00 7,0 6,3 6,5 29 16 54 29 SSW 0,2
23.01.2018 17:00:00 7,0 6,2 6,4 36 19 50 27 S 0,1
23.01.2018 16:00:00 6,7 6,1 6,3 32 18 43 23 S 0,5
23.01.2018 15:00:00 6,9 5,4 6,5 32 18 43 23 S 0,0
23.01.2018 14:00:00 6,9 4,6 6,5 25 14 40 21 S 0,0
23.01.2018 13:00:00 6,7 4,2 6,3 25 14 36 19 SSW 0,0
23.01.2018 12:00:00 6,1 4,0 6,0 25 14 36 19 S 0,0
23.01.2018 11:00:00 6,0 4,2 5,7 22 12 32 18 S 0,0
23.01.2018 10:00:00 5,3 4,0 4,7 18 10 29 16 S 0,0
23.01.2018 09:00:00 4,8 4,2 4,3 18 10 22 12 S 0,0
23.01.2018 08:00:00 4,5 4,0 3,8 14 8 22 12 S 0,0
23.01.2018 07:00:00 4,5 4,1 4,0 11 6 18 10 S 0,0
23.01.2018 06:00:00 5,1 4,4 4,6 14 8 25 14 SW 0,0
23.01.2018 05:00:00 5,1 4,4 4,5 14 8 22 12 WSW 0,0
23.01.2018 04:00:00 5,2 4,7 4,4 14 8 22 12 WSW 0,0
23.01.2018 03:00:00 5,4 4,7 4,8 14 8 22 12 WSW 0,0
23.01.2018 02:00:00 4,9 4,3 4,4 14 8 29 16 WSW 0,0
23.01.2018 01:00:00 5,4 4,6 4,9 22 12 32 18 W 0,0
23.01.2018 00:00:00 5,3 4,6 4,8 22 12 29 16 W 0,0
22.01.2018 23:00:00 5,3 4,5 4,9 25 14 32 18 W 0,0
22.01.2018 22:00:00 5,2 4,4 4,6 29 16 32 18 W 0,0
22.01.2018 21:00:00 4,6 4,0 3,9 25 14 29 16 W 0,0
22.01.2018 20:00:00 4,9 4,2 4,4 25 14 32 18 W 0,0
22.01.2018 19:00:00 5,2 4,4 4,6 29 16 36 19 W 0,0
22.01.2018 18:00:00 5,3 4,5 4,8 29 16 36 19 W 0,0
22.01.2018 17:00:00 5,3 4,4 4,6 29 16 36 19 W 0,0
22.01.2018 16:00:00 5,4 4,6 5,0 25 14 32 18 W 0,0
22.01.2018 15:00:00 5,3 4,5 5,0 22 12 32 18 W 0,0
22.01.2018 14:00:00 5,4 4,7 5,3 22 12 32 18 W 0,0
22.01.2018 13:00:00 5,3 4,7 5,0 22 12 29 16 W 0,0
22.01.2018 12:00:00 4,3 4,2 4,2 14 8 18 10 W 0,0
22.01.2018 11:00:00 2,9 2,7 2,7 11 6 18 10 S 0,0
22.01.2018 10:00:00 2,4 2,4 2,2 11 6 25 14 SSE 0,0
22.01.2018 09:00:00 1,9 1,9 1,7 18 10 25 14 SSE 0,3
22.01.2018 08:00:00 1,6 1,6 1,4 18 10 29 16 SSE 0,2
22.01.2018 07:00:00 1,5 1,3 1,3 22 12 29 16 SE 0,2
22.01.2018 06:00:00 1,3 1,1 1,1 22 12 32 18 SE 0,7
22.01.2018 05:00:00 1,3 0,8 1,1 18 10 32 18 SE 0,5
22.01.2018 04:00:00 1,6 0,8 1,4 25 14 36 19 SE 0,4
22.01.2018 03:00:00 2,4 0,4 2,0 22 12 32 18 SSE 0,0
22.01.2018 02:00:00 2,5 0,2 1,9 25 14 32 18 SE 0,0
22.01.2018 01:00:00 2,5 0,5 1,9 18 10 32 18 SSE 0,0
22.01.2018 00:00:00 2,4 0,8 1,8 22 12 29 16 SSE 0,0
21.01.2018 23:00:00 2,3 1,0 1,6 22 12 29 16 SSE 0,0
21.01.2018 22:00:00 2,3 0,9 1,7 18 10 25 14 SSE 0,0
21.01.2018 21:00:00 2,5 0,7 1,7 18 10 29 16 SSE 0,0
21.01.2018 20:00:00 2,5 1,0 1,6 18 10 22 12 SSE 0,0
21.01.2018 19:00:00 2,3 1,0 1,2 14 8 22 12 SSE 0,0
21.01.2018 18:00:00 2,3 0,8 0,4 11 6 18 10 S 0,0
21.01.2018 17:00:00 2,5 1,0 0,1 7 4 11 6 S 0,0
21.01.2018 16:00:00 3,5 1,8 2,5 7 4 14 8 SW 0,0
21.01.2018 15:00:00 4,7 2,1 4,6 14 8 18 10 W 0,0
21.01.2018 14:00:00 5,1 2,2 5,7 11 6 14 8 W 0,0
21.01.2018 13:00:00 5,2 2,2 5,8 7 4 14 8 WNW 0,0
21.01.2018 12:00:00 5,7 2,2 6,0 0 0 14 8 N 0,0
21.01.2018 11:00:00 4,3 1,8 3,6 11 6 14 8 N 0,0
21.01.2018 10:00:00 3,5 1,7 2,8 7 4 18 10 NW 0,0
21.01.2018 09:00:00 2,9 1,1 1,7 18 10 25 14 NNW 0,1
21.01.2018 08:00:00 3,0 1,5 2,0 22 12 32 18 NNW 0,1
21.01.2018 07:00:00 3,2 1,0 1,9 22 12 36 19 NNW 0,0
21.01.2018 06:00:00 2,9 1,3 1,8 14 8 22 12 NW 0,0
21.01.2018 05:00:00 3,1 1,6 2,0 18 10 40 21 NW 0,2
21.01.2018 04:00:00 3,1 1,1 2,1 22 12 36 19 NW 0,1
21.01.2018 03:00:00 4,0 1,5 3,1 25 14 36 19 NW 0,0
21.01.2018 02:00:00 3,9 0,7 2,3 22 12 36 19 WNW 0,0
21.01.2018 01:00:00 1,8 0,9 0,7 18 10 25 14 W 0,0
21.01.2018 00:00:00 1,1 0,4 -0,5 11 6 18 10 WSW 0,0
20.01.2018 23:00:00 1,5 1,2 0,5 7 4 14 8 SW 0,0
20.01.2018 22:00:00 2,1 1,9 1,8 11 6 22 12 SW 0,5
20.01.2018 21:00:00 1,9 1,7 1,3 7 4 22 12 SW 1,2
20.01.2018 20:00:00 2,4 1,8 2,0 11 6 14 8 S 0,0
20.01.2018 19:00:00 2,4 2,0 2,1 11 6 14 8 S 0,0
20.01.2018 18:00:00 2,4 1,7 1,9 11 6 22 12 S 0,0
20.01.2018 17:00:00 2,7 1,7 2,3 14 8 22 12 SSW 0,0
20.01.2018 16:00:00 2,7 2,0 2,4 14 8 25 14 S 0,0
20.01.2018 15:00:00 2,5 1,7 2,5 18 10 25 14 S 0,0
20.01.2018 14:00:00 2,4 1,6 2,3 14 8 25 14 S 0,0
20.01.2018 13:00:00 2,0 1,5 2,2 18 10 25 14 S 0,0
20.01.2018 12:00:00 1,6 1,1 1,7 18 10 32 18 S 0,0
20.01.2018 11:00:00 1,7 1,1 1,4 22 12 32 18 S 0,0
20.01.2018 10:00:00 1,5 1,0 0,9 18 10 25 14 S 0,0
20.01.2018 09:00:00 1,2 0,7 0,5 18 10 29 16 S 0,1
20.01.2018 08:00:00 1,5 0,8 0,8 22 12 32 18 S 0,0
20.01.2018 07:00:00 1,6 0,8 0,8 18 10 32 18 SSW 0,0
20.01.2018 06:00:00 1,4 0,7 0,4 18 10 29 16 S 0,0
20.01.2018 05:00:00 1,0 0,7 0,2 18 10 29 16 S 0,0
20.01.2018 04:00:00 1,0 0,6 0,5 22 12 32 18 S 0,0
20.01.2018 03:00:00 1,0 0,6 0,4 18 10 32 18 S 0,2
20.01.2018 02:00:00 1,0 0,4 0,6 14 8 29 16 SSW 0,0
20.01.2018 01:00:00 2,0 0,9 1,4 14 8 29 16 SSW 0,1
20.01.2018 00:00:00 2,0 0,8 1,3 14 8 29 16 SSW 0,0
19.01.2018 23:00:00 1,3 0,8 0,3 14 8 22 12 S 0,0
19.01.2018 22:00:00 1,8 0,8 0,9 14 8 29 16 SSW 0,2
19.01.2018 21:00:00 2,5 1,4 1,1 22 12 40 21 SW 0,1
19.01.2018 20:00:00 2,1 0,8 1,1 14 8 25 14 SSW 0,0
19.01.2018 19:00:00 2,5 1,8 2,2 14 8 32 18 WSW 0,4
19.01.2018 18:00:00 2,7 0,8 1,9 18 10 36 19 WSW 0,0
19.01.2018 17:00:00 3,5 1,4 2,5 18 10 29 16 SW 0,0
19.01.2018 16:00:00 4,3 1,8 3,8 18 10 32 18 WSW 0,0
19.01.2018 15:00:00 4,4 1,4 4,0 22 12 36 19 WSW 0,0
19.01.2018 14:00:00 4,2 2,0 3,9 25 14 50 27 WSW 0,2
19.01.2018 13:00:00 3,7 1,3 3,8 32 18 47 25 W 0,0
19.01.2018 12:00:00 3,9 2,4 4,1 18 10 25 14 SW 0,0
19.01.2018 11:00:00 2,9 1,7 2,6 18 10 29 16 SW 0,0
19.01.2018 10:00:00 2,3 1,8 2,0 14 8 22 12 SW 0,3
19.01.2018 09:00:00 1,9 1,4 1,5 18 10 32 18 SW 0,2
19.01.2018 08:00:00 1,7 1,2 0,9 14 8 25 14 SW 0,0
19.01.2018 07:00:00 1,9 1,3 1,2 14 8 29 16 SSW 0,2
19.01.2018 06:00:00 2,8 1,7 1,6 18 10 36 19 W 0,9
19.01.2018 05:00:00 1,4 0,8 0,5 11 6 22 12 SSW 0,1
19.01.2018 04:00:00 1,4 0,9 0,6 14 8 22 12 SSW 0,0
19.01.2018 03:00:00 1,0 0,5 0,0 14 8 22 12 SSW 0,0
19.01.2018 02:00:00 1,2 0,6 0,3 14 8 22 12 SSW 0,0
19.01.2018 01:00:00 1,7 0,8 0,8 14 8 22 12 SSW 0,0
19.01.2018 00:00:00 2,3 1,4 1,1 11 6 18 10 WSW 0,0
18.01.2018 23:00:00 2,5 1,6 1,6 14 8 32 18 WSW 0,5
18.01.2018 22:00:00 2,6 0,9 2,1 22 12 47 25 WSW 0,1
18.01.2018 21:00:00 3,3 1,0 2,5 29 16 36 19 W 0,0
18.01.2018 20:00:00 3,5 1,9 2,8 29 16 36 19 W 0,0
18.01.2018 19:00:00 2,8 1,5 2,2 18 10 36 19 WSW 0,0
18.01.2018 18:00:00 3,3 1,4 2,6 29 16 40 21 W 0,0
18.01.2018 17:00:00 4,1 1,9 3,3 32 18 43 23 W 0,0
18.01.2018 16:00:00 4,8 2,1 4,2 32 18 47 25 W 0,0
18.01.2018 15:00:00 4,8 2,1 4,5 36 19 50 27 NW 0,0
18.01.2018 14:00:00 4,1 2,2 3,9 47 25 72 39 NW 0,0
18.01.2018 13:00:00 4,3 2,2 4,0 61 33 90 49 NNW 0,0
18.01.2018 12:00:00 3,5 2,0 3,1 72 39 94 51 NNW 0,8
18.01.2018 11:00:00 4,7 3,3 4,4 29 16 54 29 WSW 0,2
18.01.2018 10:00:00 5,8 3,4 5,2 40 21 61 33 WSW 0,3

tt = Température de l'air
td = dewpoint
tt 5cm = Température de l'air 5cm
ff = Vitesse du vent
fx = gusts
dd = Direction du vent
rr = Quantités de précipitations

stations d'obs. à proximité